sensor_id;sensor_type;location;lat;lon;timestamp;temperature;humidity
12957;DHT22;6543;48.836;10.092;2023-03-19T00:01:30;8.50;99.90
12957;DHT22;6543;48.836;10.092;2023-03-19T00:03:56;8.50;99.90
12957;DHT22;6543;48.836;10.092;2023-03-19T00:06:23;8.50;99.90
12957;DHT22;6543;48.836;10.092;2023-03-19T00:08:51;8.50;99.90
12957;DHT22;6543;48.836;10.092;2023-03-19T00:11:17;9.00;99.90
12957;DHT22;6543;48.836;10.092;2023-03-19T00:13:44;8.30;99.90
12957;DHT22;6543;48.836;10.092;2023-03-19T00:16:12;8.30;99.90
12957;DHT22;6543;48.836;10.092;2023-03-19T00:18:39;8.20;99.90
12957;DHT22;6543;48.836;10.092;2023-03-19T00:21:06;8.20;99.90
12957;DHT22;6543;48.836;10.092;2023-03-19T00:23:34;8.10;99.90
12957;DHT22;6543;48.836;10.092;2023-03-19T00:26:01;8.10;99.90
12957;DHT22;6543;48.836;10.092;2023-03-19T00:28:28;8.80;99.90
12957;DHT22;6543;48.836;10.092;2023-03-19T00:30:55;10.00;99.90
12957;DHT22;6543;48.836;10.092;2023-03-19T00:33:24;8.10;99.90
12957;DHT22;6543;48.836;10.092;2023-03-19T00:35:51;8.10;99.90
12957;DHT22;6543;48.836;10.092;2023-03-19T00:38:18;8.00;99.90
12957;DHT22;6543;48.836;10.092;2023-03-19T00:40:45;8.00;99.90
12957;DHT22;6543;48.836;10.092;2023-03-19T00:43:13;9.30;99.90
12957;DHT22;6543;48.836;10.092;2023-03-19T00:45:39;8.00;99.90
12957;DHT22;6543;48.836;10.092;2023-03-19T00:48:06;8.10;99.90
12957;DHT22;6543;48.836;10.092;2023-03-19T00:50:34;8.10;99.90
12957;DHT22;6543;48.836;10.092;2023-03-19T00:53:01;8.10;99.90
12957;DHT22;6543;48.836;10.092;2023-03-19T00:55:28;8.10;99.90
12957;DHT22;6543;48.836;10.092;2023-03-19T00:57:55;8.20;99.90
12957;DHT22;6543;48.836;10.092;2023-03-19T01:00:22;8.20;99.90
12957;DHT22;6543;48.836;10.092;2023-03-19T01:02:49;8.20;99.90
12957;DHT22;6543;48.836;10.092;2023-03-19T01:05:16;8.20;99.90
12957;DHT22;6543;48.836;10.092;2023-03-19T01:07:45;8.30;99.90
12957;DHT22;6543;48.836;10.092;2023-03-19T01:10:12;8.30;99.90
12957;DHT22;6543;48.836;10.092;2023-03-19T01:12:39;8.30;99.90
12957;DHT22;6543;48.836;10.092;2023-03-19T01:15:07;8.60;99.90
12957;DHT22;6543;48.836;10.092;2023-03-19T01:17:34;8.30;99.90
12957;DHT22;6543;48.836;10.092;2023-03-19T01:20:01;8.70;99.90
12957;DHT22;6543;48.836;10.092;2023-03-19T01:22:27;9.20;99.90
12957;DHT22;6543;48.836;10.092;2023-03-19T01:24:56;8.40;99.90
12957;DHT22;6543;48.836;10.092;2023-03-19T01:27:22;8.40;99.90
12957;DHT22;6543;48.836;10.092;2023-03-19T01:29:49;8.50;99.90
12957;DHT22;6543;48.836;10.092;2023-03-19T01:32:17;8.50;99.90
12957;DHT22;6543;48.836;10.092;2023-03-19T01:34:43;8.40;99.90
12957;DHT22;6543;48.836;10.092;2023-03-19T01:37:11;8.40;99.90
12957;DHT22;6543;48.836;10.092;2023-03-19T01:39:38;8.40;99.90
12957;DHT22;6543;48.836;10.092;2023-03-19T01:42:06;8.40;99.90
12957;DHT22;6543;48.836;10.092;2023-03-19T01:44:35;8.40;99.90
12957;DHT22;6543;48.836;10.092;2023-03-19T01:47:05;8.50;99.90
12957;DHT22;6543;48.836;10.092;2023-03-19T01:49:33;8.50;99.90
12957;DHT22;6543;48.836;10.092;2023-03-19T01:52:03;8.50;99.90
12957;DHT22;6543;48.836;10.092;2023-03-19T01:54:31;8.50;99.90
12957;DHT22;6543;48.836;10.092;2023-03-19T01:57:01;8.50;99.90
12957;DHT22;6543;48.836;10.092;2023-03-19T01:59:33;8.10;99.90
12957;DHT22;6543;48.836;10.092;2023-03-19T02:02:03;8.50;99.90
12957;DHT22;6543;48.836;10.092;2023-03-19T02:04:33;8.50;99.90
12957;DHT22;6543;48.836;10.092;2023-03-19T02:07:03;8.50;99.90
12957;DHT22;6543;48.836;10.092;2023-03-19T02:09:32;8.50;99.90
12957;DHT22;6543;48.836;10.092;2023-03-19T02:12:00;8.50;99.90
12957;DHT22;6543;48.836;10.092;2023-03-19T02:14:27;8.40;99.90
12957;DHT22;6543;48.836;10.092;2023-03-19T02:16:56;8.40;99.90
12957;DHT22;6543;48.836;10.092;2023-03-19T02:19:29;8.40;99.90
12957;DHT22;6543;48.836;10.092;2023-03-19T02:21:58;8.70;99.90
12957;DHT22;6543;48.836;10.092;2023-03-19T02:24:31;10.00;99.90
12957;DHT22;6543;48.836;10.092;2023-03-19T02:27:00;8.50;99.90
12957;DHT22;6543;48.836;10.092;2023-03-19T02:29:27;8.50;99.90
12957;DHT22;6543;48.836;10.092;2023-03-19T02:31:54;9.20;99.90
12957;DHT22;6543;48.836;10.092;2023-03-19T02:34:36;8.50;99.90
12957;DHT22;6543;48.836;10.092;2023-03-19T02:37:08;8.50;99.90
12957;DHT22;6543;48.836;10.092;2023-03-19T02:39:40;8.60;99.90
12957;DHT22;6543;48.836;10.092;2023-03-19T02:42:12;8.60;99.90
12957;DHT22;6543;48.836;10.092;2023-03-19T02:44:40;8.60;99.90
12957;DHT22;6543;48.836;10.092;2023-03-19T02:47:07;8.60;99.90
12957;DHT22;6543;48.836;10.092;2023-03-19T02:49:34;8.60;99.90
12957;DHT22;6543;48.836;10.092;2023-03-19T02:52:01;8.60;99.90
12957;DHT22;6543;48.836;10.092;2023-03-19T02:54:28;8.60;99.90
12957;DHT22;6543;48.836;10.092;2023-03-19T02:56:55;9.90;99.90
12957;DHT22;6543;48.836;10.092;2023-03-19T02:59:23;8.60;99.90
12957;DHT22;6543;48.836;10.092;2023-03-19T03:01:50;8.80;99.90
12957;DHT22;6543;48.836;10.092;2023-03-19T03:04:17;10.20;99.90
12957;DHT22;6543;48.836;10.092;2023-03-19T03:06:44;8.70;99.90
12957;DHT22;6543;48.836;10.092;2023-03-19T03:09:11;8.80;99.90
12957;DHT22;6543;48.836;10.092;2023-03-19T03:11:38;8.70;99.90
12957;DHT22;6543;48.836;10.092;2023-03-19T03:14:06;8.60;99.90
12957;DHT22;6543;48.836;10.092;2023-03-19T03:16:34;8.60;99.90
12957;DHT22;6543;48.836;10.092;2023-03-19T03:19:02;8.50;99.90
12957;DHT22;6543;48.836;10.092;2023-03-19T03:21:29;8.40;99.90
12957;DHT22;6543;48.836;10.092;2023-03-19T03:23:56;8.40;99.90
12957;DHT22;6543;48.836;10.092;2023-03-19T03:26:23;8.30;99.90
12957;DHT22;6543;48.836;10.092;2023-03-19T03:28:50;8.30;99.90
12957;DHT22;6543;48.836;10.092;2023-03-19T03:31:18;8.30;99.90
12957;DHT22;6543;48.836;10.092;2023-03-19T03:33:48;8.30;99.90
12957;DHT22;6543;48.836;10.092;2023-03-19T03:36:16;8.30;99.90
12957;DHT22;6543;48.836;10.092;2023-03-19T03:38:43;8.30;99.90
12957;DHT22;6543;48.836;10.092;2023-03-19T03:41:10;8.80;99.90
12957;DHT22;6543;48.836;10.092;2023-03-19T03:43:37;8.30;99.90
12957;DHT22;6543;48.836;10.092;2023-03-19T03:46:05;8.30;99.90
12957;DHT22;6543;48.836;10.092;2023-03-19T03:48:33;8.20;99.90
12957;DHT22;6543;48.836;10.092;2023-03-19T03:51:01;8.20;99.90
12957;DHT22;6543;48.836;10.092;2023-03-19T03:53:28;8.30;99.90
12957;DHT22;6543;48.836;10.092;2023-03-19T03:55:55;8.30;99.90
12957;DHT22;6543;48.836;10.092;2023-03-19T03:58:22;8.40;99.90
12957;DHT22;6543;48.836;10.092;2023-03-19T04:00:50;8.40;99.90
12957;DHT22;6543;48.836;10.092;2023-03-19T04:03:19;8.30;99.90
12957;DHT22;6543;48.836;10.092;2023-03-19T04:05:46;10.10;99.90
12957;DHT22;6543;48.836;10.092;2023-03-19T04:08:15;8.30;99.90
12957;DHT22;6543;48.836;10.092;2023-03-19T04:10:42;8.20;99.90
12957;DHT22;6543;48.836;10.092;2023-03-19T04:13:09;8.10;99.90
12957;DHT22;6543;48.836;10.092;2023-03-19T04:15:37;8.10;99.90
12957;DHT22;6543;48.836;10.092;2023-03-19T04:18:04;8.10;99.90
12957;DHT22;6543;48.836;10.092;2023-03-19T04:20:30;8.10;99.90
12957;DHT22;6543;48.836;10.092;2023-03-19T04:22:57;8.10;99.90
12957;DHT22;6543;48.836;10.092;2023-03-19T04:25:25;8.10;99.90
12957;DHT22;6543;48.836;10.092;2023-03-19T04:27:52;8.10;99.90
12957;DHT22;6543;48.836;10.092;2023-03-19T04:30:22;8.10;99.90
12957;DHT22;6543;48.836;10.092;2023-03-19T04:32:49;8.10;99.90
12957;DHT22;6543;48.836;10.092;2023-03-19T04:35:16;8.00;99.90
12957;DHT22;6543;48.836;10.092;2023-03-19T04:37:43;8.20;99.90
12957;DHT22;6543;48.836;10.092;2023-03-19T04:40:13;8.40;99.90
12957;DHT22;6543;48.836;10.092;2023-03-19T04:42:41;8.40;99.90
12957;DHT22;6543;48.836;10.092;2023-03-19T04:45:10;8.30;99.90
12957;DHT22;6543;48.836;10.092;2023-03-19T04:47:36;8.40;99.90
12957;DHT22;6543;48.836;10.092;2023-03-19T04:50:05;8.50;99.90
12957;DHT22;6543;48.836;10.092;2023-03-19T04:52:32;8.40;99.90
12957;DHT22;6543;48.836;10.092;2023-03-19T04:54:59;8.40;99.90
12957;DHT22;6543;48.836;10.092;2023-03-19T04:57:26;10.40;99.90
12957;DHT22;6543;48.836;10.092;2023-03-19T04:59:54;8.30;99.90
12957;DHT22;6543;48.836;10.092;2023-03-19T05:02:21;10.10;99.90
12957;DHT22;6543;48.836;10.092;2023-03-19T05:04:48;8.20;99.90
12957;DHT22;6543;48.836;10.092;2023-03-19T05:07:14;8.30;99.90
12957;DHT22;6543;48.836;10.092;2023-03-19T05:09:41;8.30;99.90
12957;DHT22;6543;48.836;10.092;2023-03-19T05:12:11;8.40;99.90
12957;DHT22;6543;48.836;10.092;2023-03-19T05:14:38;8.40;99.90
12957;DHT22;6543;48.836;10.092;2023-03-19T05:17:06;8.40;99.90
12957;DHT22;6543;48.836;10.092;2023-03-19T05:19:35;8.40;99.90
12957;DHT22;6543;48.836;10.092;2023-03-19T05:22:03;8.50;99.90
12957;DHT22;6543;48.836;10.092;2023-03-19T05:24:30;8.90;99.90
12957;DHT22;6543;48.836;10.092;2023-03-19T05:26:57;8.50;99.90
12957;DHT22;6543;48.836;10.092;2023-03-19T05:29:24;8.50;99.90
12957;DHT22;6543;48.836;10.092;2023-03-19T05:31:51;8.50;99.90
12957;DHT22;6543;48.836;10.092;2023-03-19T05:34:20;8.50;99.90
12957;DHT22;6543;48.836;10.092;2023-03-19T05:36:47;8.40;99.90
12957;DHT22;6543;48.836;10.092;2023-03-19T05:39:14;8.40;99.90
12957;DHT22;6543;48.836;10.092;2023-03-19T05:41:41;8.30;99.90
12957;DHT22;6543;48.836;10.092;2023-03-19T05:44:08;8.30;99.90
12957;DHT22;6543;48.836;10.092;2023-03-19T05:46:35;9.70;99.90
12957;DHT22;6543;48.836;10.092;2023-03-19T05:49:02;8.30;99.90
12957;DHT22;6543;48.836;10.092;2023-03-19T05:51:30;8.30;99.90
12957;DHT22;6543;48.836;10.092;2023-03-19T05:53:57;8.30;99.90
12957;DHT22;6543;48.836;10.092;2023-03-19T05:56:24;8.30;99.90
12957;DHT22;6543;48.836;10.092;2023-03-19T05:58:52;8.30;99.90
12957;DHT22;6543;48.836;10.092;2023-03-19T06:01:19;8.30;99.90
12957;DHT22;6543;48.836;10.092;2023-03-19T06:03:46;8.30;99.90
12957;DHT22;6543;48.836;10.092;2023-03-19T06:06:16;10.00;99.90
12957;DHT22;6543;48.836;10.092;2023-03-19T06:08:44;8.40;99.90
12957;DHT22;6543;48.836;10.092;2023-03-19T06:11:11;8.40;99.90
12957;DHT22;6543;48.836;10.092;2023-03-19T06:13:38;8.40;99.90
12957;DHT22;6543;48.836;10.092;2023-03-19T06:16:06;9.10;99.90
12957;DHT22;6543;48.836;10.092;2023-03-19T06:18:33;8.40;99.90
12957;DHT22;6543;48.836;10.092;2023-03-19T06:20:59;8.40;99.90
12957;DHT22;6543;48.836;10.092;2023-03-19T06:23:26;8.50;99.90
12957;DHT22;6543;48.836;10.092;2023-03-19T06:25:54;8.50;99.90
12957;DHT22;6543;48.836;10.092;2023-03-19T06:28:21;8.50;99.90
12957;DHT22;6543;48.836;10.092;2023-03-19T06:30:48;10.10;99.90
12957;DHT22;6543;48.836;10.092;2023-03-19T06:33:15;8.50;99.90
12957;DHT22;6543;48.836;10.092;2023-03-19T06:35:42;8.60;99.90
12957;DHT22;6543;48.836;10.092;2023-03-19T06:38:09;8.60;99.90
12957;DHT22;6543;48.836;10.092;2023-03-19T06:40:36;8.60;99.90
12957;DHT22;6543;48.836;10.092;2023-03-19T06:43:04;8.70;99.90
12957;DHT22;6543;48.836;10.092;2023-03-19T06:45:31;8.70;99.90
12957;DHT22;6543;48.836;10.092;2023-03-19T06:47:58;8.80;99.90
12957;DHT22;6543;48.836;10.092;2023-03-19T06:50:25;10.10;99.90
12957;DHT22;6543;48.836;10.092;2023-03-19T06:52:52;8.80;99.90
12957;DHT22;6543;48.836;10.092;2023-03-19T06:55:19;8.80;99.90
12957;DHT22;6543;48.836;10.092;2023-03-19T06:57:47;8.80;99.90
12957;DHT22;6543;48.836;10.092;2023-03-19T07:00:17;8.90;99.90
12957;DHT22;6543;48.836;10.092;2023-03-19T07:02:45;8.90;99.90
12957;DHT22;6543;48.836;10.092;2023-03-19T07:05:12;9.20;99.90
12957;DHT22;6543;48.836;10.092;2023-03-19T07:07:39;10.50;99.90
12957;DHT22;6543;48.836;10.092;2023-03-19T07:10:06;9.80;99.90
12957;DHT22;6543;48.836;10.092;2023-03-19T07:12:34;8.90;99.90
12957;DHT22;6543;48.836;10.092;2023-03-19T07:15:01;8.90;99.90
12957;DHT22;6543;48.836;10.092;2023-03-19T07:17:30;9.60;99.90
12957;DHT22;6543;48.836;10.092;2023-03-19T07:19:57;8.80;99.90
12957;DHT22;6543;48.836;10.092;2023-03-19T07:22:24;8.90;99.90
12957;DHT22;6543;48.836;10.092;2023-03-19T07:24:51;8.80;99.90
12957;DHT22;6543;48.836;10.092;2023-03-19T07:27:18;9.00;99.90
12957;DHT22;6543;48.836;10.092;2023-03-19T07:29:45;8.90;99.90
12957;DHT22;6543;48.836;10.092;2023-03-19T07:32:12;8.90;99.90
12957;DHT22;6543;48.836;10.092;2023-03-19T07:34:40;9.00;99.90
12957;DHT22;6543;48.836;10.092;2023-03-19T07:37:07;9.00;99.90
12957;DHT22;6543;48.836;10.092;2023-03-19T07:39:34;9.00;99.90
12957;DHT22;6543;48.836;10.092;2023-03-19T07:42:01;9.10;99.90
12957;DHT22;6543;48.836;10.092;2023-03-19T07:44:28;9.20;99.90
12957;DHT22;6543;48.836;10.092;2023-03-19T07:46:55;10.60;99.90
12957;DHT22;6543;48.836;10.092;2023-03-19T07:49:22;9.30;99.90
12957;DHT22;6543;48.836;10.092;2023-03-19T07:51:50;9.30;99.90
12957;DHT22;6543;48.836;10.092;2023-03-19T07:54:17;9.40;99.90
12957;DHT22;6543;48.836;10.092;2023-03-19T07:56:44;9.50;99.90
12957;DHT22;6543;48.836;10.092;2023-03-19T07:59:11;9.50;99.90
12957;DHT22;6543;48.836;10.092;2023-03-19T08:01:38;9.50;99.90
12957;DHT22;6543;48.836;10.092;2023-03-19T08:04:05;9.60;99.90
12957;DHT22;6543;48.836;10.092;2023-03-19T08:06:33;9.70;99.90
12957;DHT22;6543;48.836;10.092;2023-03-19T08:09:01;9.70;99.90
12957;DHT22;6543;48.836;10.092;2023-03-19T08:11:28;11.80;99.90
12957;DHT22;6543;48.836;10.092;2023-03-19T08:13:55;11.00;99.90
12957;DHT22;6543;48.836;10.092;2023-03-19T08:16:22;9.90;99.90
12957;DHT22;6543;48.836;10.092;2023-03-19T08:18:49;9.90;99.90
12957;DHT22;6543;48.836;10.092;2023-03-19T08:21:16;9.90;99.90
12957;DHT22;6543;48.836;10.092;2023-03-19T08:23:43;9.90;99.90
12957;DHT22;6543;48.836;10.092;2023-03-19T08:26:11;10.00;99.90
12957;DHT22;6543;48.836;10.092;2023-03-19T08:28:38;10.50;99.90
12957;DHT22;6543;48.836;10.092;2023-03-19T08:31:07;10.10;99.90
12957;DHT22;6543;48.836;10.092;2023-03-19T08:33:34;10.10;99.90
12957;DHT22;6543;48.836;10.092;2023-03-19T08:36:06;10.10;99.90
12957;DHT22;6543;48.836;10.092;2023-03-19T08:38:33;10.10;99.90
12957;DHT22;6543;48.836;10.092;2023-03-19T08:41:00;10.20;99.90
12957;DHT22;6543;48.836;10.092;2023-03-19T08:43:30;10.20;99.90
12957;DHT22;6543;48.836;10.092;2023-03-19T08:45:58;11.60;99.90
12957;DHT22;6543;48.836;10.092;2023-03-19T08:48:25;11.80;99.90
12957;DHT22;6543;48.836;10.092;2023-03-19T08:50:53;10.50;99.90
12957;DHT22;6543;48.836;10.092;2023-03-19T08:53:21;12.10;99.90
12957;DHT22;6543;48.836;10.092;2023-03-19T08:55:51;10.60;99.90
12957;DHT22;6543;48.836;10.092;2023-03-19T08:58:19;10.60;99.90
12957;DHT22;6543;48.836;10.092;2023-03-19T09:00:47;10.80;99.90
12957;DHT22;6543;48.836;10.092;2023-03-19T09:03:15;10.90;99.90
12957;DHT22;6543;48.836;10.092;2023-03-19T09:05:43;11.00;99.90
12957;DHT22;6543;48.836;10.092;2023-03-19T09:08:10;11.00;99.90
12957;DHT22;6543;48.836;10.092;2023-03-19T09:10:37;11.00;99.90
12957;DHT22;6543;48.836;10.092;2023-03-19T09:13:04;11.00;99.90
12957;DHT22;6543;48.836;10.092;2023-03-19T09:15:31;11.10;99.90
12957;DHT22;6543;48.836;10.092;2023-03-19T09:17:59;11.10;99.90
12957;DHT22;6543;48.836;10.092;2023-03-19T09:20:26;11.20;99.90
12957;DHT22;6543;48.836;10.092;2023-03-19T09:22:53;11.30;99.90
12957;DHT22;6543;48.836;10.092;2023-03-19T09:25:20;11.30;99.90
12957;DHT22;6543;48.836;10.092;2023-03-19T09:27:46;11.60;99.90
12957;DHT22;6543;48.836;10.092;2023-03-19T09:30:14;11.70;99.90
12957;DHT22;6543;48.836;10.092;2023-03-19T09:32:41;11.80;99.90
12957;DHT22;6543;48.836;10.092;2023-03-19T09:35:09;12.10;99.90
12957;DHT22;6543;48.836;10.092;2023-03-19T09:37:36;12.10;99.90
12957;DHT22;6543;48.836;10.092;2023-03-19T09:40:04;12.00;99.90
12957;DHT22;6543;48.836;10.092;2023-03-19T09:42:44;12.10;99.90
12957;DHT22;6543;48.836;10.092;2023-03-19T09:45:17;12.20;99.90
12957;DHT22;6543;48.836;10.092;2023-03-19T09:47:45;12.30;99.90
12957;DHT22;6543;48.836;10.092;2023-03-19T09:50:16;12.50;99.90
12957;DHT22;6543;48.836;10.092;2023-03-19T09:52:44;12.50;99.90
12957;DHT22;6543;48.836;10.092;2023-03-19T09:55:26;12.40;99.90
12957;DHT22;6543;48.836;10.092;2023-03-19T09:57:56;12.50;99.90
12957;DHT22;6543;48.836;10.092;2023-03-19T10:00:25;12.50;99.90
12957;DHT22;6543;48.836;10.092;2023-03-19T10:02:57;12.70;99.90
12957;DHT22;6543;48.836;10.092;2023-03-19T10:05:39;12.90;99.90
12957;DHT22;6543;48.836;10.092;2023-03-19T10:08:26;12.90;99.90
12957;DHT22;6543;48.836;10.092;2023-03-19T10:11:21;13.10;99.90
12957;DHT22;6543;48.836;10.092;2023-03-19T10:14:02;13.20;99.90
12957;DHT22;6543;48.836;10.092;2023-03-19T10:16:30;13.40;99.90
12957;DHT22;6543;48.836;10.092;2023-03-19T10:19:00;13.40;99.90
12957;DHT22;6543;48.836;10.092;2023-03-19T10:21:32;13.50;99.90
12957;DHT22;6543;48.836;10.092;2023-03-19T10:24:02;13.60;99.90
12957;DHT22;6543;48.836;10.092;2023-03-19T10:26:33;13.60;99.90
12957;DHT22;6543;48.836;10.092;2023-03-19T10:29:07;13.60;99.90
12957;DHT22;6543;48.836;10.092;2023-03-19T10:31:41;13.80;99.90
12957;DHT22;6543;48.836;10.092;2023-03-19T10:34:28;13.70;99.90
12957;DHT22;6543;48.836;10.092;2023-03-19T10:37:03;13.60;99.90
12957;DHT22;6543;48.836;10.092;2023-03-19T10:39:32;13.70;99.90
12957;DHT22;6543;48.836;10.092;2023-03-19T10:42:12;14.00;99.90
12957;DHT22;6543;48.836;10.092;2023-03-19T10:44:48;13.90;99.90
12957;DHT22;6543;48.836;10.092;2023-03-19T10:47:15;13.90;99.90
12957;DHT22;6543;48.836;10.092;2023-03-19T10:49:44;13.90;99.90
12957;DHT22;6543;48.836;10.092;2023-03-19T10:52:20;14.00;99.90
12957;DHT22;6543;48.836;10.092;2023-03-19T10:54:53;14.00;99.90
12957;DHT22;6543;48.836;10.092;2023-03-19T10:57:22;14.00;99.90
12957;DHT22;6543;48.836;10.092;2023-03-19T10:59:49;14.20;99.90
12957;DHT22;6543;48.836;10.092;2023-03-19T11:02:18;14.10;99.90
12957;DHT22;6543;48.836;10.092;2023-03-19T11:04:45;13.90;99.90
12957;DHT22;6543;48.836;10.092;2023-03-19T11:07:14;14.00;99.90
12957;DHT22;6543;48.836;10.092;2023-03-19T11:09:45;14.10;99.90
12957;DHT22;6543;48.836;10.092;2023-03-19T11:12:18;14.10;99.90
12957;DHT22;6543;48.836;10.092;2023-03-19T11:14:49;14.20;99.90
12957;DHT22;6543;48.836;10.092;2023-03-19T11:17:21;14.30;99.90
12957;DHT22;6543;48.836;10.092;2023-03-19T11:19:50;14.30;99.90
12957;DHT22;6543;48.836;10.092;2023-03-19T11:22:21;14.30;99.90
12957;DHT22;6543;48.836;10.092;2023-03-19T11:24:52;14.60;99.90
12957;DHT22;6543;48.836;10.092;2023-03-19T11:27:27;14.70;99.90
12957;DHT22;6543;48.836;10.092;2023-03-19T11:29:55;15.10;99.90
12957;DHT22;6543;48.836;10.092;2023-03-19T11:35:37;15.30;99.90
12957;DHT22;6543;48.836;10.092;2023-03-19T11:38:15;15.40;99.90
12957;DHT22;6543;48.836;10.092;2023-03-19T11:40:46;15.60;99.90
12957;DHT22;6543;48.836;10.092;2023-03-19T11:43:39;15.70;99.90
12957;DHT22;6543;48.836;10.092;2023-03-19T11:46:19;15.90;99.90
12957;DHT22;6543;48.836;10.092;2023-03-19T11:49:20;15.50;99.90
12957;DHT22;6543;48.836;10.092;2023-03-19T11:51:54;15.40;99.90
12957;DHT22;6543;48.836;10.092;2023-03-19T11:54:31;15.60;99.90
12957;DHT22;6543;48.836;10.092;2023-03-19T11:57:03;15.60;99.90
12957;DHT22;6543;48.836;10.092;2023-03-19T12:02:51;15.40;99.90
12957;DHT22;6543;48.836;10.092;2023-03-19T12:05:25;15.80;99.90
12957;DHT22;6543;48.836;10.092;2023-03-19T12:08:16;16.00;99.90
12957;DHT22;6543;48.836;10.092;2023-03-19T12:10:52;16.20;99.90
12957;DHT22;6543;48.836;10.092;2023-03-19T12:13:40;15.80;99.90
12957;DHT22;6543;48.836;10.092;2023-03-19T12:16:15;16.10;99.90
12957;DHT22;6543;48.836;10.092;2023-03-19T12:18:56;17.00;99.90
12957;DHT22;6543;48.836;10.092;2023-03-19T12:21:32;16.30;99.90
12957;DHT22;6543;48.836;10.092;2023-03-19T12:24:05;16.40;99.90
12957;DHT22;6543;48.836;10.092;2023-03-19T12:26:46;16.80;99.90
12957;DHT22;6543;48.836;10.092;2023-03-19T12:29:23;16.90;99.90
12957;DHT22;6543;48.836;10.092;2023-03-19T12:32:05;16.90;99.90
12957;DHT22;6543;48.836;10.092;2023-03-19T12:34:38;16.80;99.90
12957;DHT22;6543;48.836;10.092;2023-03-19T12:37:16;16.60;99.90
12957;DHT22;6543;48.836;10.092;2023-03-19T12:39:51;16.30;99.90
12957;DHT22;6543;48.836;10.092;2023-03-19T12:42:21;16.30;99.90
12957;DHT22;6543;48.836;10.092;2023-03-19T12:44:56;16.20;99.90
12957;DHT22;6543;48.836;10.092;2023-03-19T12:47:28;16.30;99.90
12957;DHT22;6543;48.836;10.092;2023-03-19T12:50:00;16.70;99.90
12957;DHT22;6543;48.836;10.092;2023-03-19T12:52:32;16.50;99.90
12957;DHT22;6543;48.836;10.092;2023-03-19T12:55:05;16.40;99.90
12957;DHT22;6543;48.836;10.092;2023-03-19T12:57:38;16.50;99.90
12957;DHT22;6543;48.836;10.092;2023-03-19T13:00:16;16.70;99.90
12957;DHT22;6543;48.836;10.092;2023-03-19T13:02:49;16.90;99.90
12957;DHT22;6543;48.836;10.092;2023-03-19T13:05:24;16.80;99.90
12957;DHT22;6543;48.836;10.092;2023-03-19T13:07:58;16.20;99.90
12957;DHT22;6543;48.836;10.092;2023-03-19T13:10:29;16.00;99.90
12957;DHT22;6543;48.836;10.092;2023-03-19T13:12:57;16.30;99.90
12957;DHT22;6543;48.836;10.092;2023-03-19T13:15:32;16.40;99.90
12957;DHT22;6543;48.836;10.092;2023-03-19T13:18:10;15.90;99.90
12957;DHT22;6543;48.836;10.092;2023-03-19T13:20:50;15.90;99.90
12957;DHT22;6543;48.836;10.092;2023-03-19T13:23:23;16.10;99.90
12957;DHT22;6543;48.836;10.092;2023-03-19T13:25:53;16.60;99.90
12957;DHT22;6543;48.836;10.092;2023-03-19T13:28:26;16.70;99.90
12957;DHT22;6543;48.836;10.092;2023-03-19T13:31:04;16.60;99.90
12957;DHT22;6543;48.836;10.092;2023-03-19T13:33:32;16.90;99.90
12957;DHT22;6543;48.836;10.092;2023-03-19T13:36:03;16.80;99.90
12957;DHT22;6543;48.836;10.092;2023-03-19T13:38:37;16.90;99.90
12957;DHT22;6543;48.836;10.092;2023-03-19T13:44:32;16.50;99.90
12957;DHT22;6543;48.836;10.092;2023-03-19T13:47:02;16.60;99.90
12957;DHT22;6543;48.836;10.092;2023-03-19T13:49:32;16.90;99.90
12957;DHT22;6543;48.836;10.092;2023-03-19T13:52:40;17.00;99.90
12957;DHT22;6543;48.836;10.092;2023-03-19T13:55:30;16.50;99.90
12957;DHT22;6543;48.836;10.092;2023-03-19T13:58:09;16.40;99.90
12957;DHT22;6543;48.836;10.092;2023-03-19T14:00:56;16.40;99.90
12957;DHT22;6543;48.836;10.092;2023-03-19T14:03:26;16.50;99.90
12957;DHT22;6543;48.836;10.092;2023-03-19T14:05:55;16.50;99.90
12957;DHT22;6543;48.836;10.092;2023-03-19T14:08:25;16.30;99.90
12957;DHT22;6543;48.836;10.092;2023-03-19T14:10:54;16.10;99.90
12957;DHT22;6543;48.836;10.092;2023-03-19T14:13:30;15.50;99.90
12957;DHT22;6543;48.836;10.092;2023-03-19T14:16:04;15.90;99.90
12957;DHT22;6543;48.836;10.092;2023-03-19T14:18:38;16.00;99.90
12957;DHT22;6543;48.836;10.092;2023-03-19T14:21:09;16.00;99.90
12957;DHT22;6543;48.836;10.092;2023-03-19T14:23:39;16.00;99.90
12957;DHT22;6543;48.836;10.092;2023-03-19T14:26:12;16.00;99.90
12957;DHT22;6543;48.836;10.092;2023-03-19T14:28:47;15.90;99.90
12957;DHT22;6543;48.836;10.092;2023-03-19T14:31:25;15.90;99.90
12957;DHT22;6543;48.836;10.092;2023-03-19T14:34:00;15.80;99.90
12957;DHT22;6543;48.836;10.092;2023-03-19T14:36:29;15.90;99.90
12957;DHT22;6543;48.836;10.092;2023-03-19T14:38:58;15.80;99.90
12957;DHT22;6543;48.836;10.092;2023-03-19T14:41:30;15.80;99.90
12957;DHT22;6543;48.836;10.092;2023-03-19T14:47:19;15.70;99.90
12957;DHT22;6543;48.836;10.092;2023-03-19T14:50:02;15.60;99.90
12957;DHT22;6543;48.836;10.092;2023-03-19T14:52:42;15.30;99.90
12957;DHT22;6543;48.836;10.092;2023-03-19T14:55:12;15.40;99.90
12957;DHT22;6543;48.836;10.092;2023-03-19T14:57:39;16.70;99.90
12957;DHT22;6543;48.836;10.092;2023-03-19T15:00:14;16.30;99.90
12957;DHT22;6543;48.836;10.092;2023-03-19T15:02:43;15.20;99.90
12957;DHT22;6543;48.836;10.092;2023-03-19T15:05:17;15.30;99.90
12957;DHT22;6543;48.836;10.092;2023-03-19T15:07:48;15.20;99.90
12957;DHT22;6543;48.836;10.092;2023-03-19T15:10:18;15.20;99.90
12957;DHT22;6543;48.836;10.092;2023-03-19T15:13:05;16.60;99.90
12957;DHT22;6543;48.836;10.092;2023-03-19T15:15:53;15.00;99.90
12957;DHT22;6543;48.836;10.092;2023-03-19T15:18:24;15.50;99.90
12957;DHT22;6543;48.836;10.092;2023-03-19T15:20:54;15.00;99.90
12957;DHT22;6543;48.836;10.092;2023-03-19T15:23:25;14.90;99.90
12957;DHT22;6543;48.836;10.092;2023-03-19T15:25:56;14.80;99.90
12957;DHT22;6543;48.836;10.092;2023-03-19T15:28:27;15.00;99.90
12957;DHT22;6543;48.836;10.092;2023-03-19T15:30:56;14.40;99.90
12957;DHT22;6543;48.836;10.092;2023-03-19T15:33:30;15.00;99.90
12957;DHT22;6543;48.836;10.092;2023-03-19T15:36:03;14.40;99.90
12957;DHT22;6543;48.836;10.092;2023-03-19T15:38:37;14.00;99.90
12957;DHT22;6543;48.836;10.092;2023-03-19T15:41:07;13.90;99.90
12957;DHT22;6543;48.836;10.092;2023-03-19T15:43:38;13.80;99.90
12957;DHT22;6543;48.836;10.092;2023-03-19T15:46:08;13.80;99.90
12957;DHT22;6543;48.836;10.092;2023-03-19T15:48:40;15.20;99.90
12957;DHT22;6543;48.836;10.092;2023-03-19T15:51:13;13.70;99.90
12957;DHT22;6543;48.836;10.092;2023-03-19T15:53:42;14.40;99.90
12957;DHT22;6543;48.836;10.092;2023-03-19T15:56:12;15.00;99.90
12957;DHT22;6543;48.836;10.092;2023-03-19T15:58:43;14.10;99.90
12957;DHT22;6543;48.836;10.092;2023-03-19T16:01:11;13.20;99.90
12957;DHT22;6543;48.836;10.092;2023-03-19T16:03:41;13.20;99.90
12957;DHT22;6543;48.836;10.092;2023-03-19T16:06:16;12.90;99.90
12957;DHT22;6543;48.836;10.092;2023-03-19T16:08:46;13.80;99.90